KGON 241756Z 23010KT 10SM CLR 13/04 A3015 RMK AO2 SLP209 T01330044 10133 20072 58008

KGON 241656Z 22010KT 10SM CLR 13/03 A3016 RMK AO2 SLP213 T01280033

KGON 241556Z 24005KT 10SM CLR 12/02 A3017 RMK AO2 SLP216 T01220022

KGON 241456Z 35006KT 10SM CLR 12/01 A3017 RMK AO2 SLP217 T01170011 50009

KGON 241356Z 34009KT 10SM CLR 11/03 A3018 RMK AO2 SLP220 T01060033

KGON 241256Z 34008KT 10SM CLR 09/04 A3016 RMK AO2 SLP214 T00940039

KGON 241156Z 34006KT 10SM CLR 07/03 A3015 RMK AO2 SLP208 T00720033 10089 20061 53027

KGON 241056Z 34007KT 10SM CLR 06/03 A3011 RMK AO2 SLP197 T00610028